sensor_id;sensor_type;location;lat;lon;timestamp;pressure;altitude;pressure_sealevel;temperature;humidity
32243;BME280;18731;42.830;24.390;2022-10-30T03:00:16;95277.75;;;5.96;76.75
32243;BME280;18731;42.830;24.390;2022-10-30T03:02:42;95272.16;;;5.98;76.30
32243;BME280;18731;42.830;24.390;2022-10-30T03:05:07;95259.25;;;5.91;75.73
32243;BME280;18731;42.830;24.390;2022-10-30T03:07:33;95267.19;;;5.91;76.80
32243;BME280;18731;42.830;24.390;2022-10-30T03:09:59;95271.16;;;5.89;77.61
32243;BME280;18731;42.830;24.390;2022-10-30T03:12:24;95265.34;;;5.92;76.97
32243;BME280;18731;42.830;24.390;2022-10-30T03:14:50;95269.00;;;5.96;76.07
32243;BME280;18731;42.830;24.390;2022-10-30T03:17:15;95271.59;;;6.01;75.55
32243;BME280;18731;42.830;24.390;2022-10-30T03:19:41;95268.13;;;6.05;75.97
32243;BME280;18731;42.830;24.390;2022-10-30T03:22:07;95267.88;;;6.02;75.60
32243;BME280;18731;42.830;24.390;2022-10-30T03:24:32;95272.44;;;5.96;76.85
32243;BME280;18731;42.830;24.390;2022-10-30T03:26:58;95270.88;;;5.95;77.13
32243;BME280;18731;42.830;24.390;2022-10-30T03:29:23;95264.72;;;6.00;76.04
32243;BME280;18731;42.830;24.390;2022-10-30T03:31:49;95267.97;;;5.92;76.72
32243;BME280;18731;42.830;24.390;2022-10-30T03:34:15;95259.25;;;5.86;77.96
32243;BME280;18731;42.830;24.390;2022-10-30T03:36:41;95242.34;;;5.82;77.44
32243;BME280;18731;42.830;24.390;2022-10-30T03:39:06;95277.41;;;6.03;76.55
32243;BME280;18731;42.830;24.390;2022-10-30T03:41:32;95271.06;;;6.04;76.99
32243;BME280;18731;42.830;24.390;2022-10-30T03:43:58;95272.72;;;5.95;76.95
32243;BME280;18731;42.830;24.390;2022-10-30T03:46:23;95270.38;;;5.88;77.37
32243;BME280;18731;42.830;24.390;2022-10-30T03:48:49;95280.34;;;6.01;77.06
32243;BME280;18731;42.830;24.390;2022-10-30T03:51:15;95253.63;;;5.98;76.97
32243;BME280;18731;42.830;24.390;2022-10-30T03:53:41;95269.94;;;6.10;76.15
32243;BME280;18731;42.830;24.390;2022-10-30T03:56:08;95265.69;;;6.09;76.08
32243;BME280;18731;42.830;24.390;2022-10-30T03:58:34;95265.41;;;6.10;75.67
32243;BME280;18731;42.830;24.390;2022-10-30T04:01:01;95264.16;;;6.03;75.76
32243;BME280;18731;42.830;24.390;2022-10-30T04:03:27;95271.06;;;6.04;76.13
32243;BME280;18731;42.830;24.390;2022-10-30T04:05:52;95254.19;;;5.95;77.22
32243;BME280;18731;42.830;24.390;2022-10-30T04:08:18;95265.84;;;5.94;77.49
32243;BME280;18731;42.830;24.390;2022-10-30T04:10:45;95268.44;;;5.99;76.54
32243;BME280;18731;42.830;24.390;2022-10-30T04:13:13;95256.59;;;5.91;76.80
32243;BME280;18731;42.830;24.390;2022-10-30T04:15:39;95265.25;;;6.02;76.71
32243;BME280;18731;42.830;24.390;2022-10-30T04:18:06;95268.69;;;6.02;76.77
32243;BME280;18731;42.830;24.390;2022-10-30T04:20:32;95262.59;;;6.02;77.00
32243;BME280;18731;42.830;24.390;2022-10-30T04:23:00;95263.16;;;5.99;76.63
32243;BME280;18731;42.830;24.390;2022-10-30T04:25:26;95250.19;;;5.97;76.21
32243;BME280;18731;42.830;24.390;2022-10-30T04:27:53;95253.63;;;5.98;75.59
32243;BME280;18731;42.830;24.390;2022-10-30T04:30:20;95252.09;;;5.92;77.12
32243;BME280;18731;42.830;24.390;2022-10-30T04:32:51;95260.44;;;6.04;76.45
32243;BME280;18731;42.830;24.390;2022-10-30T04:35:19;95258.34;;;6.01;75.38
32243;BME280;18731;42.830;24.390;2022-10-30T04:37:52;95265.56;;;5.95;75.00
32243;BME280;18731;42.830;24.390;2022-10-30T04:40:19;95257.91;;;5.89;75.29
32243;BME280;18731;42.830;24.390;2022-10-30T04:42:48;95263.78;;;5.86;76.24
32243;BME280;18731;42.830;24.390;2022-10-30T04:45:14;95262.19;;;5.85;75.75
32243;BME280;18731;42.830;24.390;2022-10-30T04:47:40;95257.44;;;5.81;75.80
32243;BME280;18731;42.830;24.390;2022-10-30T04:50:07;95264.03;;;5.89;75.33
32243;BME280;18731;42.830;24.390;2022-10-30T04:52:34;95267.47;;;5.85;75.82
32243;BME280;18731;42.830;24.390;2022-10-30T04:54:59;95268.03;;;5.81;75.59
32243;BME280;18731;42.830;24.390;2022-10-30T04:57:25;95267.66;;;5.64;75.47
32243;BME280;18731;42.830;24.390;2022-10-30T04:59:51;95275.53;;;5.74;77.67
32243;BME280;18731;42.830;24.390;2022-10-30T05:02:16;95281.84;;;5.78;78.25
32243;BME280;18731;42.830;24.390;2022-10-30T05:04:44;95271.06;;;5.70;77.25
32243;BME280;18731;42.830;24.390;2022-10-30T05:07:11;95265.53;;;5.66;76.42
32243;BME280;18731;42.830;24.390;2022-10-30T05:09:37;95277.63;;;5.77;76.55
32243;BME280;18731;42.830;24.390;2022-10-30T05:12:03;95280.25;;;5.77;77.00
32243;BME280;18731;42.830;24.390;2022-10-30T05:14:30;95279.16;;;5.84;76.51
32243;BME280;18731;42.830;24.390;2022-10-30T05:16:56;95261.00;;;5.67;77.46
32243;BME280;18731;42.830;24.390;2022-10-30T05:19:21;95271.81;;;5.75;77.85
32243;BME280;18731;42.830;24.390;2022-10-30T05:21:47;95252.25;;;5.71;77.77
32243;BME280;18731;42.830;24.390;2022-10-30T05:24:13;95271.16;;;5.89;78.05
32243;BME280;18731;42.830;24.390;2022-10-30T05:26:38;95266.41;;;5.91;77.43
32243;BME280;18731;42.830;24.390;2022-10-30T05:29:04;95252.38;;;5.85;77.12
32243;BME280;18731;42.830;24.390;2022-10-30T05:31:30;95256.31;;;5.88;76.76
32243;BME280;18731;42.830;24.390;2022-10-30T05:33:55;95260.06;;;5.87;77.14
32243;BME280;18731;42.830;24.390;2022-10-30T05:36:21;95257.44;;;5.81;77.26
32243;BME280;18731;42.830;24.390;2022-10-30T05:38:47;95259.25;;;5.86;76.91
32243;BME280;18731;42.830;24.390;2022-10-30T05:41:13;95263.78;;;5.86;77.61
32243;BME280;18731;42.830;24.390;2022-10-30T05:43:38;95261.09;;;5.91;78.70
32243;BME280;18731;42.830;24.390;2022-10-30T05:46:04;95243.06;;;5.93;79.43
32243;BME280;18731;42.830;24.390;2022-10-30T05:48:30;95256.53;;;6.25;79.93
32243;BME280;18731;42.830;24.390;2022-10-30T05:50:55;95230.53;;;6.27;79.52
32243;BME280;18731;42.830;24.390;2022-10-30T05:53:21;95245.97;;;6.68;79.12
32243;BME280;18731;42.830;24.390;2022-10-30T05:55:48;95244.19;;;6.82;78.80
32243;BME280;18731;42.830;24.390;2022-10-30T05:58:14;95247.50;;;7.12;78.15
32243;BME280;18731;42.830;24.390;2022-10-30T06:00:40;95190.75;;;6.89;76.87
32243;BME280;18731;42.830;24.390;2022-10-30T06:03:10;95255.78;;;7.61;76.72
32243;BME280;18731;42.830;24.390;2022-10-30T06:05:37;95255.53;;;7.77;75.35
32243;BME280;18731;42.830;24.390;2022-10-30T06:08:04;95257.63;;;8.12;75.04
32243;BME280;18731;42.830;24.390;2022-10-30T06:10:31;95255.13;;;8.34;73.84
32243;BME280;18731;42.830;24.390;2022-10-30T06:13:01;95240.84;;;8.44;72.87
32243;BME280;18731;42.830;24.390;2022-10-30T06:15:28;95230.69;;;8.60;72.58
32243;BME280;18731;42.830;24.390;2022-10-30T06:17:54;95242.69;;;8.85;72.10
32243;BME280;18731;42.830;24.390;2022-10-30T06:20:23;95246.50;;;9.06;72.05
32243;BME280;18731;42.830;24.390;2022-10-30T06:23:03;95244.75;;;9.38;71.53
32243;BME280;18731;42.830;24.390;2022-10-30T06:25:33;95243.72;;;9.70;70.75
32243;BME280;18731;42.830;24.390;2022-10-30T06:27:59;95244.56;;;10.01;70.10
32243;BME280;18731;42.830;24.390;2022-10-30T06:30:26;95232.34;;;10.31;68.73
32243;BME280;18731;42.830;24.390;2022-10-30T06:32:59;95233.28;;;10.66;67.59
32243;BME280;18731;42.830;24.390;2022-10-30T06:35:26;95234.75;;;10.89;67.03
32243;BME280;18731;42.830;24.390;2022-10-30T06:37:52;95224.09;;;11.15;66.34
32243;BME280;18731;42.830;24.390;2022-10-30T06:40:19;95227.09;;;11.31;65.25
32243;BME280;18731;42.830;24.390;2022-10-30T06:42:47;95223.63;;;11.56;64.87
32243;BME280;18731;42.830;24.390;2022-10-30T06:45:14;95228.34;;;11.59;64.75
32243;BME280;18731;42.830;24.390;2022-10-30T06:47:40;95220.47;;;11.89;64.19
32243;BME280;18731;42.830;24.390;2022-10-30T06:50:09;95217.44;;;12.16;63.75
32243;BME280;18731;42.830;24.390;2022-10-30T06:52:36;95215.97;;;12.28;63.20
32243;BME280;18731;42.830;24.390;2022-10-30T06:55:02;95214.34;;;12.44;62.65
32243;BME280;18731;42.830;24.390;2022-10-30T06:57:28;95211.69;;;12.73;61.80
32243;BME280;18731;42.830;24.390;2022-10-30T06:59:53;95214.84;;;12.96;61.31
32243;BME280;18731;42.830;24.390;2022-10-30T07:02:19;95222.50;;;13.15;59.84
32243;BME280;18731;42.830;24.390;2022-10-30T07:04:45;95223.50;;;13.31;59.35
32243;BME280;18731;42.830;24.390;2022-10-30T07:07:12;95212.84;;;13.43;60.20
32243;BME280;18731;42.830;24.390;2022-10-30T07:09:38;95206.88;;;13.59;60.42
32243;BME280;18731;42.830;24.390;2022-10-30T07:12:04;95210.19;;;13.76;60.54
32243;BME280;18731;42.830;24.390;2022-10-30T07:14:31;95216.78;;;14.12;59.37
32243;BME280;18731;42.830;24.390;2022-10-30T07:16:57;95209.50;;;14.45;58.20
32243;BME280;18731;42.830;24.390;2022-10-30T07:19:23;95210.97;;;14.67;57.16
32243;BME280;18731;42.830;24.390;2022-10-30T07:21:48;95199.66;;;14.62;57.49
32243;BME280;18731;42.830;24.390;2022-10-30T07:24:14;95208.94;;;14.89;56.03
32243;BME280;18731;42.830;24.390;2022-10-30T07:26:41;95196.34;;;15.17;55.74
32243;BME280;18731;42.830;24.390;2022-10-30T07:29:07;95199.00;;;15.29;53.79
32243;BME280;18731;42.830;24.390;2022-10-30T07:31:32;95187.88;;;15.43;54.29
32243;BME280;18731;42.830;24.390;2022-10-30T07:33:58;95196.84;;;15.87;54.23
32243;BME280;18731;42.830;24.390;2022-10-30T07:36:24;95191.78;;;16.29;53.82
32243;BME280;18731;42.830;24.390;2022-10-30T07:38:50;95184.16;;;16.47;53.67
32243;BME280;18731;42.830;24.390;2022-10-30T07:41:18;95192.56;;;16.61;49.26
32243;BME280;18731;42.830;24.390;2022-10-30T07:43:44;95177.72;;;16.67;49.67
32243;BME280;18731;42.830;24.390;2022-10-30T07:46:09;95185.97;;;16.75;49.49
32243;BME280;18731;42.830;24.390;2022-10-30T07:48:35;95180.84;;;16.85;51.62
32243;BME280;18731;42.830;24.390;2022-10-30T07:51:01;95127.69;;;16.86;51.68
32243;BME280;18731;42.830;24.390;2022-10-30T07:53:27;95172.91;;;17.27;47.55
32243;BME280;18731;42.830;24.390;2022-10-30T07:55:54;95176.91;;;17.53;48.31
32243;BME280;18731;42.830;24.390;2022-10-30T07:58:20;95156.94;;;17.57;48.10
32243;BME280;18731;42.830;24.390;2022-10-30T08:00:46;95174.44;;;17.83;48.24
32243;BME280;18731;42.830;24.390;2022-10-30T08:03:12;95179.31;;;17.96;46.35
32243;BME280;18731;42.830;24.390;2022-10-30T08:05:38;95168.22;;;18.21;43.01
32243;BME280;18731;42.830;24.390;2022-10-30T08:08:05;95160.16;;;18.47;46.54
32243;BME280;18731;42.830;24.390;2022-10-30T08:10:31;95157.81;;;18.69;44.62
32243;BME280;18731;42.830;24.390;2022-10-30T08:12:57;95155.38;;;18.86;45.87
32243;BME280;18731;42.830;24.390;2022-10-30T08:15:22;95145.03;;;18.92;45.51
32243;BME280;18731;42.830;24.390;2022-10-30T08:17:49;95139.50;;;19.11;41.34
32243;BME280;18731;42.830;24.390;2022-10-30T08:20:17;95131.34;;;19.38;41.54
32243;BME280;18731;42.830;24.390;2022-10-30T08:25:10;95119.47;;;19.79;40.57
32243;BME280;18731;42.830;24.390;2022-10-30T08:27:35;95126.72;;;20.09;43.24
32243;BME280;18731;42.830;24.390;2022-10-30T08:30:01;95119.53;;;20.27;42.36
32243;BME280;18731;42.830;24.390;2022-10-30T08:32:26;95110.03;;;20.44;41.48
32243;BME280;18731;42.830;24.390;2022-10-30T08:34:52;95111.38;;;20.71;41.02
32243;BME280;18731;42.830;24.390;2022-10-30T08:37:17;95115.03;;;20.93;41.69
32243;BME280;18731;42.830;24.390;2022-10-30T08:39:44;95118.97;;;20.99;41.08
32243;BME280;18731;42.830;24.390;2022-10-30T08:42:10;95109.31;;;21.09;40.13
32243;BME280;18731;42.830;24.390;2022-10-30T08:44:36;95113.78;;;21.42;39.09
32243;BME280;18731;42.830;24.390;2022-10-30T08:47:01;95105.28;;;21.50;41.01
32243;BME280;18731;42.830;24.390;2022-10-30T08:49:27;95111.97;;;21.78;41.02
32243;BME280;18731;42.830;24.390;2022-10-30T08:51:52;95093.75;;;21.93;39.04
32243;BME280;18731;42.830;24.390;2022-10-30T08:54:18;95096.13;;;22.16;39.83
32243;BME280;18731;42.830;24.390;2022-10-30T08:56:44;95093.41;;;22.26;36.32
32243;BME280;18731;42.830;24.390;2022-10-30T08:59:09;95093.81;;;22.60;34.87
32243;BME280;18731;42.830;24.390;2022-10-30T09:01:35;95096.16;;;22.80;38.17
32243;BME280;18731;42.830;24.390;2022-10-30T09:04:01;95089.88;;;23.00;33.96
32243;BME280;18731;42.830;24.390;2022-10-30T09:06:26;95077.38;;;23.21;32.11
32243;BME280;18731;42.830;24.390;2022-10-30T09:08:52;95076.19;;;23.29;34.60
32243;BME280;18731;42.830;24.390;2022-10-30T09:11:18;95073.81;;;23.45;34.04
32243;BME280;18731;42.830;24.390;2022-10-30T09:13:43;95079.16;;;23.70;34.50
32243;BME280;18731;42.830;24.390;2022-10-30T09:16:09;95078.59;;;24.00;33.23
32243;BME280;18731;42.830;24.390;2022-10-30T09:18:35;95065.19;;;24.27;30.93
32243;BME280;18731;42.830;24.390;2022-10-30T09:21:00;95065.38;;;24.54;34.38
32243;BME280;18731;42.830;24.390;2022-10-30T09:23:26;95060.19;;;24.66;31.39
32243;BME280;18731;42.830;24.390;2022-10-30T09:25:55;95066.66;;;24.83;31.16
32243;BME280;18731;42.830;24.390;2022-10-30T09:28:21;95044.00;;;24.86;31.22
32243;BME280;18731;42.830;24.390;2022-10-30T09:30:46;95051.63;;;25.06;31.76
32243;BME280;18731;42.830;24.390;2022-10-30T09:33:17;95051.03;;;25.21;30.05
32243;BME280;18731;42.830;24.390;2022-10-30T09:35:42;95039.63;;;25.30;29.78
32243;BME280;18731;42.830;24.390;2022-10-30T09:38:08;95036.13;;;25.29;28.82
32243;BME280;18731;42.830;24.390;2022-10-30T09:41:06;95043.09;;;25.34;29.80
32243;BME280;18731;42.830;24.390;2022-10-30T09:57:03;95017.69;;;26.21;30.79
32243;BME280;18731;42.830;24.390;2022-10-30T10:00:02;95019.63;;;26.48;30.57
32243;BME280;18731;42.830;24.390;2022-10-30T10:05:44;95010.09;;;26.56;28.43
32243;BME280;18731;42.830;24.390;2022-10-30T10:08:19;94996.16;;;26.70;27.68
32243;BME280;18731;42.830;24.390;2022-10-30T10:10:56;94997.81;;;26.64;28.22
32243;BME280;18731;42.830;24.390;2022-10-30T10:13:47;94986.38;;;26.69;27.05
32243;BME280;18731;42.830;24.390;2022-10-30T10:16:17;94983.53;;;26.96;27.04
32243;BME280;18731;42.830;24.390;2022-10-30T10:18:48;94980.31;;;27.21;26.63
32243;BME280;18731;42.830;24.390;2022-10-30T10:21:27;94986.50;;;27.05;26.13
32243;BME280;18731;42.830;24.390;2022-10-30T10:23:55;94986.59;;;26.78;27.42
32243;BME280;18731;42.830;24.390;2022-10-30T10:26:46;94985.53;;;26.72;27.28
32243;BME280;18731;42.830;24.390;2022-10-30T10:29:31;94985.53;;;26.72;26.45
32243;BME280;18731;42.830;24.390;2022-10-30T10:54:41;94952.84;;;27.05;26.33
32243;BME280;18731;42.830;24.390;2022-10-30T10:57:35;94947.72;;;27.07;26.07
32243;BME280;18731;42.830;24.390;2022-10-30T11:00:06;94936.03;;;27.22;26.39
32243;BME280;18731;42.830;24.390;2022-10-30T11:05:18;94945.94;;;27.36;25.60
32243;BME280;18731;42.830;24.390;2022-10-30T11:07:49;94942.38;;;27.55;26.14
32243;BME280;18731;42.830;24.390;2022-10-30T11:10:17;94931.25;;;27.63;25.85
32243;BME280;18731;42.830;24.390;2022-10-30T11:12:43;94938.63;;;27.66;25.37
32243;BME280;18731;42.830;24.390;2022-10-30T11:18:12;94927.16;;;27.87;26.11
32243;BME280;18731;42.830;24.390;2022-10-30T11:20:54;94919.94;;;28.09;26.13
32243;BME280;18731;42.830;24.390;2022-10-30T11:23:35;94924.06;;;28.34;25.22
32243;BME280;18731;42.830;24.390;2022-10-30T11:31:37;94910.88;;;27.96;26.28
32243;BME280;18731;42.830;24.390;2022-10-30T11:36:43;94908.09;;;28.12;24.61
32243;BME280;18731;42.830;24.390;2022-10-30T11:39:10;94896.28;;;28.15;25.91
32243;BME280;18731;42.830;24.390;2022-10-30T11:41:37;94873.53;;;28.31;25.25
32243;BME280;18731;42.830;24.390;2022-10-30T11:44:05;94878.97;;;28.47;25.44
32243;BME280;18731;42.830;24.390;2022-10-30T11:46:32;94898.94;;;28.64;24.96
32243;BME280;18731;42.830;24.390;2022-10-30T11:49:00;94881.38;;;28.45;24.84
32243;BME280;18731;42.830;24.390;2022-10-30T11:51:38;94882.44;;;28.35;25.08
32243;BME280;18731;42.830;24.390;2022-10-30T11:54:05;94873.28;;;28.26;25.60
32243;BME280;18731;42.830;24.390;2022-10-30T11:56:33;94877.91;;;28.29;24.63
32243;BME280;18731;42.830;24.390;2022-10-30T11:59:01;94875.56;;;28.43;23.73
32243;BME280;18731;42.830;24.390;2022-10-30T12:01:33;94873.69;;;28.69;25.44
32243;BME280;18731;42.830;24.390;2022-10-30T12:04:23;94871.47;;;29.06;26.68
32243;BME280;18731;42.830;24.390;2022-10-30T12:07:25;94866.53;;;29.01;23.95
32243;BME280;18731;42.830;24.390;2022-10-30T12:09:54;94872.03;;;29.01;25.04
32243;BME280;18731;42.830;24.390;2022-10-30T12:12:40;94864.13;;;29.28;24.57
32243;BME280;18731;42.830;24.390;2022-10-30T12:15:16;94860.88;;;29.46;24.48
32243;BME280;18731;42.830;24.390;2022-10-30T12:18:02;94865.53;;;29.84;23.74
32243;BME280;18731;42.830;24.390;2022-10-30T12:20:29;94870.22;;;30.21;24.02
32243;BME280;18731;42.830;24.390;2022-10-30T12:22:55;94862.16;;;30.27;22.35
32243;BME280;18731;42.830;24.390;2022-10-30T12:25:25;94862.13;;;29.92;23.02
32243;BME280;18731;42.830;24.390;2022-10-30T12:27:59;94868.06;;;30.03;23.46
32243;BME280;18731;42.830;24.390;2022-10-30T12:30:32;94869.19;;;29.81;23.19
32243;BME280;18731;42.830;24.390;2022-10-30T12:33:16;94867.69;;;29.54;23.55
32243;BME280;18731;42.830;24.390;2022-10-30T12:35:59;94866.44;;;29.30;24.33
32243;BME280;18731;42.830;24.390;2022-10-30T12:44:07;94857.09;;;29.15;24.30
32243;BME280;18731;42.830;24.390;2022-10-30T12:52:36;94860.63;;;29.40;22.52
32243;BME280;18731;42.830;24.390;2022-10-30T13:00:22;94847.59;;;27.87;24.35
32243;BME280;18731;42.830;24.390;2022-10-30T13:03:03;94853.59;;;27.49;25.20
32243;BME280;18731;42.830;24.390;2022-10-30T13:06:22;94848.41;;;26.23;26.73
32243;BME280;18731;42.830;24.390;2022-10-30T13:11:38;94849.44;;;23.73;29.40
32243;BME280;18731;42.830;24.390;2022-10-30T13:14:12;94851.81;;;23.08;31.19
32243;BME280;18731;42.830;24.390;2022-10-30T13:16:39;94848.66;;;22.40;31.34
32243;BME280;18731;42.830;24.390;2022-10-30T13:19:08;94849.53;;;21.88;32.48
32243;BME280;18731;42.830;24.390;2022-10-30T13:24:33;94856.94;;;21.55;34.75
32243;BME280;18731;42.830;24.390;2022-10-30T13:27:13;94851.13;;;21.46;34.17
32243;BME280;18731;42.830;24.390;2022-10-30T13:30:03;94851.47;;;21.19;35.30
32243;BME280;18731;42.830;24.390;2022-10-30T13:40:36;94853.59;;;20.46;37.25
32243;BME280;18731;42.830;24.390;2022-10-30T13:46:32;94851.22;;;20.34;38.35
32243;BME280;18731;42.830;24.390;2022-10-30T13:50:10;94853.81;;;20.13;38.37
32243;BME280;18731;42.830;24.390;2022-10-30T13:54:43;94859.53;;;19.97;39.78
32243;BME280;18731;42.830;24.390;2022-10-30T13:57:32;94864.91;;;19.86;40.70
32243;BME280;18731;42.830;24.390;2022-10-30T14:00:04;94860.94;;;19.73;39.55
32243;BME280;18731;42.830;24.390;2022-10-30T14:03:01;94864.31;;;19.59;40.45
32243;BME280;18731;42.830;24.390;2022-10-30T14:05:37;94865.38;;;19.48;42.30
32243;BME280;18731;42.830;24.390;2022-10-30T14:10:56;94869.34;;;19.13;43.33
32243;BME280;18731;42.830;24.390;2022-10-30T14:13:27;94868.78;;;18.97;45.56
32243;BME280;18731;42.830;24.390;2022-10-30T14:16:01;94863.25;;;18.83;43.69
32243;BME280;18731;42.830;24.390;2022-10-30T14:19:00;94857.69;;;18.69;44.05
32243;BME280;18731;42.830;24.390;2022-10-30T14:24:20;94868.63;;;18.49;45.76
32243;BME280;18731;42.830;24.390;2022-10-30T14:32:34;94860.81;;;18.11;45.98
32243;BME280;18731;42.830;24.390;2022-10-30T14:39:48;94876.56;;;17.79;48.06
32243;BME280;18731;42.830;24.390;2022-10-30T14:42:44;94875.56;;;17.64;47.99
32243;BME280;18731;42.830;24.390;2022-10-30T14:45:21;94874.56;;;17.49;49.55
32243;BME280;18731;42.830;24.390;2022-10-30T14:47:56;94873.31;;;17.43;48.48
32243;BME280;18731;42.830;24.390;2022-10-30T14:53:03;94879.19;;;17.26;49.48
32243;BME280;18731;42.830;24.390;2022-10-30T14:58:29;94879.06;;;16.96;49.77
32243;BME280;18731;42.830;24.390;2022-10-30T15:06:10;94870.53;;;16.52;50.31
32243;BME280;18731;42.830;24.390;2022-10-30T15:08:45;94878.47;;;16.45;51.02
32243;BME280;18731;42.830;24.390;2022-10-30T15:11:33;94892.16;;;16.36;50.89
32243;BME280;18731;42.830;24.390;2022-10-30T15:14:18;94883.78;;;16.22;51.78
32243;BME280;18731;42.830;24.390;2022-10-30T15:16:48;94888.88;;;16.07;51.90
32243;BME280;18731;42.830;24.390;2022-10-30T15:19:16;94884.59;;;15.87;53.19
32243;BME280;18731;42.830;24.390;2022-10-30T15:21:47;94890.25;;;15.82;52.98
32243;BME280;18731;42.830;24.390;2022-10-30T15:24:20;94894.78;;;15.78;52.56
32243;BME280;18731;42.830;24.390;2022-10-30T15:26:48;94897.13;;;15.64;52.76
32243;BME280;18731;42.830;24.390;2022-10-30T15:29:26;94898.31;;;15.51;53.94
32243;BME280;18731;42.830;24.390;2022-10-30T15:32:01;94898.84;;;15.40;54.26
32243;BME280;18731;42.830;24.390;2022-10-30T15:34:29;94897.00;;;15.29;54.42
32243;BME280;18731;42.830;24.390;2022-10-30T15:36:55;94909.50;;;15.21;54.87
32243;BME280;18731;42.830;24.390;2022-10-30T15:39:22;94910.03;;;15.11;55.13
32243;BME280;18731;42.830;24.390;2022-10-30T15:41:54;94902.28;;;14.94;55.41
32243;BME280;18731;42.830;24.390;2022-10-30T15:44:26;94918.22;;;14.87;55.81
32243;BME280;18731;42.830;24.390;2022-10-30T15:46:54;94915.78;;;14.82;56.52
32243;BME280;18731;42.830;24.390;2022-10-30T15:49:39;94901.44;;;14.62;56.67
32243;BME280;18731;42.830;24.390;2022-10-30T15:52:16;94922.84;;;14.58;56.83
32243;BME280;18731;42.830;24.390;2022-10-30T15:54:43;94922.31;;;14.53;56.82
32243;BME280;18731;42.830;24.390;2022-10-30T15:57:34;94926.69;;;14.45;56.52
32243;BME280;18731;42.830;24.390;2022-10-30T16:00:04;94919.09;;;14.35;57.01
32243;BME280;18731;42.830;24.390;2022-10-30T16:02:32;94931.19;;;14.29;56.90
32243;BME280;18731;42.830;24.390;2022-10-30T16:04:58;94935.91;;;14.20;57.06
32243;BME280;18731;42.830;24.390;2022-10-30T16:07:28;94940.84;;;14.18;57.69
32243;BME280;18731;42.830;24.390;2022-10-30T16:09:58;94937.41;;;14.05;58.02
32243;BME280;18731;42.830;24.390;2022-10-30T16:12:32;94946.47;;;14.00;58.01
32243;BME280;18731;42.830;24.390;2022-10-30T16:15:07;94942.91;;;13.84;58.43
32243;BME280;18731;42.830;24.390;2022-10-30T16:17:40;94948.06;;;13.77;58.30
32243;BME280;18731;42.830;24.390;2022-10-30T16:20:07;94947.81;;;13.82;58.60
32243;BME280;18731;42.830;24.390;2022-10-30T16:22:36;94946.25;;;13.69;59.39
32243;BME280;18731;42.830;24.390;2022-10-30T16:25:07;94938.34;;;13.60;58.99
32243;BME280;18731;42.830;24.390;2022-10-30T16:27:43;94942.91;;;13.60;58.95
32243;BME280;18731;42.830;24.390;2022-10-30T16:30:12;94948.06;;;13.65;58.86
32243;BME280;18731;42.830;24.390;2022-10-30T16:32:39;94946.16;;;13.65;59.16
32243;BME280;18731;42.830;24.390;2022-10-30T16:35:06;94944.25;;;13.66;59.11
32243;BME280;18731;42.830;24.390;2022-10-30T16:37:34;94945.03;;;13.66;59.18
32243;BME280;18731;42.830;24.390;2022-10-30T16:40:24;94943.59;;;13.57;59.09
32243;BME280;18731;42.830;24.390;2022-10-30T16:42:59;94952.31;;;13.54;59.58
32243;BME280;18731;42.830;24.390;2022-10-30T16:47:58;94945.25;;;13.37;60.12
32243;BME280;18731;42.830;24.390;2022-10-30T16:50:32;94949.16;;;13.27;60.40
32243;BME280;18731;42.830;24.390;2022-10-30T16:53:26;94961.09;;;13.30;60.25
32243;BME280;18731;42.830;24.390;2022-10-30T16:55:53;94958.63;;;13.25;60.00
32243;BME280;18731;42.830;24.390;2022-10-30T16:58:25;94956.03;;;13.16;60.82
32243;BME280;18731;42.830;24.390;2022-10-30T17:01:01;94958.25;;;13.14;61.05
32243;BME280;18731;42.830;24.390;2022-10-30T17:03:30;94962.59;;;13.06;60.64
32243;BME280;18731;42.830;24.390;2022-10-30T17:08:51;94961.09;;;12.97;61.12
32243;BME280;18731;42.830;24.390;2022-10-30T17:11:19;94952.56;;;12.82;61.56
32243;BME280;18731;42.830;24.390;2022-10-30T17:16:27;94973.09;;;12.78;61.34
32243;BME280;18731;42.830;24.390;2022-10-30T17:18:55;94965.91;;;12.70;61.41
32243;BME280;18731;42.830;24.390;2022-10-30T17:21:24;94981.78;;;12.75;61.47
32243;BME280;18731;42.830;24.390;2022-10-30T17:23:55;94977.28;;;12.67;61.67
32243;BME280;18731;42.830;24.390;2022-10-30T17:26:21;94966.44;;;12.64;62.23
32243;BME280;18731;42.830;24.390;2022-10-30T17:28:47;94972.97;;;12.54;62.52
32243;BME280;18731;42.830;24.390;2022-10-30T17:36:27;94960.19;;;12.39;62.70
32243;BME280;18731;42.830;24.390;2022-10-30T17:38:53;94964.50;;;12.31;63.04
32243;BME280;18731;42.830;24.390;2022-10-30T17:41:18;94973.97;;;12.29;63.20
32243;BME280;18731;42.830;24.390;2022-10-30T17:43:51;94967.91;;;12.19;63.41
32243;BME280;18731;42.830;24.390;2022-10-30T17:46:18;94971.88;;;12.13;63.42
32243;BME280;18731;42.830;24.390;2022-10-30T17:48:43;94968.53;;;12.16;63.56
32243;BME280;18731;42.830;24.390;2022-10-30T17:51:13;94972.34;;;12.15;63.65
32243;BME280;18731;42.830;24.390;2022-10-30T17:53:39;94969.00;;;12.18;63.32
32243;BME280;18731;42.830;24.390;2022-10-30T17:56:29;94966.47;;;12.22;63.20
32243;BME280;18731;42.830;24.390;2022-10-30T17:58:56;94971.22;;;12.16;63.52
32243;BME280;18731;42.830;24.390;2022-10-30T18:01:24;94977.03;;;12.18;63.55
32243;BME280;18731;42.830;24.390;2022-10-30T18:03:51;94968.41;;;12.13;63.65
32243;BME280;18731;42.830;24.390;2022-10-30T18:06:21;94977.22;;;12.13;63.67
32243;BME280;18731;42.830;24.390;2022-10-30T18:08:48;94929.63;;;11.77;63.81
32243;BME280;18731;42.830;24.390;2022-10-30T18:11:16;94980.41;;;12.07;63.56
32243;BME280;18731;42.830;24.390;2022-10-30T18:13:44;94971.53;;;11.94;64.42
32243;BME280;18731;42.830;24.390;2022-10-30T18:16:12;94976.38;;;12.01;64.00
32243;BME280;18731;42.830;24.390;2022-10-30T18:18:39;94971.25;;;11.87;64.39